Time;durP1;ratioP1;P1;durP2;ratioP2;P2;SDS_P1;SDS_P2;PMS_P1;PMS_P2;Temp;Humidity;BMP_temperature;BMP_pressure;BME280_temperature;BME280_humidity;BME280_pressure;Samples;Min_cycle;Max_cycle;Signal;HPM_P1;HPM_P2
2022/07/09 00:00:34;;;;;;;17.45;6.80;;;;;;;;;;5059768;28;20049;-76
2022/07/09 00:03:00;;;;;;;14.18;6.25;;;;;;;;;;5058819;28;20021;-76
2022/07/09 00:05:26;;;;;;;11.10;6.80;;;;;;;;;;5026274;28;20072;-76
2022/07/09 00:07:52;;;;;;;9.88;5.55;;;;;;;;;;5041675;28;20041;-75
2022/07/09 00:10:18;;;;;;;13.32;6.10;;;;;;;;;;5056632;28;20096;-76
2022/07/09 00:12:44;;;;;;;11.73;6.47;;;;;;;;;;5060222;28;20021;-76
2022/07/09 00:15:10;;;;;;;12.63;6.88;;;;;;;;;;5058528;28;20060;-75
2022/07/09 00:17:36;;;;;;;12.57;6.88;;;;;;;;;;5059856;28;20050;-76
2022/07/09 00:20:04;;;;;;;13.75;6.28;;;;;;;;;;5056237;28;20037;-76
2022/07/09 00:22:31;;;;;;;12.38;6.30;;;;;;;;;;5049498;28;20030;-76
2022/07/09 00:24:57;;;;;;;12.95;6.72;;;;;;;;;;5025655;28;20049;-76
2022/07/09 00:27:23;;;;;;;12.02;6.40;;;;;;;;;;5016722;28;20044;-76
2022/07/09 00:29:49;;;;;;;15.15;6.45;;;;;;;;;;5059247;28;20033;-76
2022/07/09 00:32:16;;;;;;;13.40;6.63;;;;;;;;;;5042279;28;20033;-76
2022/07/09 00:34:42;;;;;;;13.73;6.57;;;;;;;;;;5024916;28;20054;-76
2022/07/09 00:37:08;;;;;;;12.55;6.78;;;;;;;;;;5059273;28;20017;-76
2022/07/09 00:39:34;;;;;;;12.90;7.18;;;;;;;;;;5057075;28;20093;-76
2022/07/09 00:42:07;;;;;;;16.52;7.35;;;;;;;;;;5059316;28;20026;-75
2022/07/09 00:47:10;;;;;;;11.95;6.75;;;;;;;;;;5012664;28;20058;-80
2022/07/09 00:49:40;;;;;;;14.05;7.20;;;;;;;;;;5012519;28;20141;-78
2022/07/09 00:52:07;;;;;;;18.48;7.10;;;;;;;;;;5014830;28;20049;-78
2022/07/09 00:54:33;;;;;;;11.18;6.72;;;;;;;;;;5014371;28;20129;-79
2022/07/09 00:56:59;;;;;;;14.73;6.38;;;;;;;;;;5013853;28;20049;-78
2022/07/09 00:59:26;;;;;;;13.80;6.53;;;;;;;;;;5014818;28;20052;-79
2022/07/09 01:01:52;;;;;;;9.80;6.22;;;;;;;;;;5013629;28;20108;-79
2022/07/09 01:04:18;;;;;;;14.40;6.18;;;;;;;;;;5014549;28;20060;-79
2022/07/09 01:06:45;;;;;;;9.07;5.65;;;;;;;;;;5014548;28;20092;-79
2022/07/09 01:09:11;;;;;;;10.40;5.82;;;;;;;;;;5012704;28;20497;-78
2022/07/09 01:11:37;;;;;;;8.77;5.75;;;;;;;;;;4996067;28;20128;-79
2022/07/09 01:14:04;;;;;;;10.20;5.00;;;;;;;;;;5015070;28;20050;-79
2022/07/09 01:16:33;;;;;;;9.65;5.63;;;;;;;;;;5014681;28;20042;-78
2022/07/09 01:19:02;;;;;;;8.07;5.20;;;;;;;;;;5013882;28;20034;-78
2022/07/09 01:21:28;;;;;;;7.72;4.70;;;;;;;;;;5014708;28;20057;-79
2022/07/09 01:23:54;;;;;;;10.07;5.05;;;;;;;;;;4995858;28;20112;-79
2022/07/09 01:26:20;;;;;;;10.70;4.70;;;;;;;;;;5014466;28;20445;-79
2022/07/09 01:28:47;;;;;;;8.30;5.03;;;;;;;;;;4982807;28;20046;-79
2022/07/09 01:31:13;;;;;;;8.35;4.28;;;;;;;;;;4998827;28;20046;-78
2022/07/09 01:33:40;;;;;;;8.57;4.60;;;;;;;;;;5013478;28;20077;-79
2022/07/09 01:36:06;;;;;;;8.45;4.30;;;;;;;;;;4979929;28;20049;-78
2022/07/09 01:38:33;;;;;;;8.05;4.10;;;;;;;;;;5014515;28;20045;-79
2022/07/09 01:40:59;;;;;;;10.05;4.93;;;;;;;;;;5014082;28;20463;-79
2022/07/09 01:43:25;;;;;;;8.88;4.75;;;;;;;;;;5012118;28;20568;-78
2022/07/09 01:45:51;;;;;;;6.75;4.07;;;;;;;;;;5001891;28;20058;-78
2022/07/09 01:48:17;;;;;;;7.97;4.38;;;;;;;;;;4992855;28;20094;-79
2022/07/09 01:50:43;;;;;;;8.77;4.53;;;;;;;;;;4993116;28;20113;-78
2022/07/09 01:53:09;;;;;;;9.10;5.07;;;;;;;;;;4992935;28;20046;-78
2022/07/09 01:55:35;;;;;;;8.10;4.68;;;;;;;;;;4994313;28;20410;-77
2022/07/09 01:58:01;;;;;;;9.18;5.20;;;;;;;;;;4995004;28;20050;-78
2022/07/09 02:00:30;;;;;;;9.20;5.53;;;;;;;;;;4993510;28;20039;-77
2022/07/09 02:02:56;;;;;;;8.30;5.18;;;;;;;;;;4993667;28;20055;-78
2022/07/09 02:05:23;;;;;;;13.57;5.90;;;;;;;;;;4990028;28;20085;-79
2022/07/09 02:07:52;;;;;;;9.38;5.30;;;;;;;;;;4985704;28;20047;-78
2022/07/09 02:10:21;;;;;;;8.45;5.40;;;;;;;;;;4987081;28;20038;-79
2022/07/09 02:12:47;;;;;;;8.07;5.13;;;;;;;;;;4993092;28;20049;-79
2022/07/09 02:15:13;;;;;;;9.30;5.15;;;;;;;;;;4992968;28;20034;-78
2022/07/09 02:17:39;;;;;;;10.65;5.97;;;;;;;;;;4993022;28;20138;-79
2022/07/09 02:20:05;;;;;;;13.18;6.68;;;;;;;;;;4975241;28;20046;-79
2022/07/09 02:22:41;;;;;;;9.27;5.80;;;;;;;;;;4977183;28;20045;-79
2022/07/09 02:25:07;;;;;;;8.98;5.55;;;;;;;;;;4993567;28;20042;-79
2022/07/09 02:27:33;;;;;;;10.57;5.55;;;;;;;;;;4994269;28;20046;-80
2022/07/09 02:29:59;;;;;;;7.00;5.03;;;;;;;;;;4993833;28;20605;-79
2022/07/09 02:32:25;;;;;;;8.73;5.80;;;;;;;;;;4992740;28;20139;-78
2022/07/09 02:34:51;;;;;;;8.27;4.70;;;;;;;;;;4993654;28;20046;-78
2022/07/09 02:37:17;;;;;;;9.10;5.03;;;;;;;;;;4993223;28;20461;-78
2022/07/09 02:39:43;;;;;;;8.55;5.15;;;;;;;;;;4990234;28;20051;-79
2022/07/09 02:42:09;;;;;;;7.47;4.55;;;;;;;;;;4991507;28;20492;-78
2022/07/09 02:44:35;;;;;;;8.15;4.70;;;;;;;;;;4993466;28;20050;-78
2022/07/09 02:47:01;;;;;;;8.75;4.15;;;;;;;;;;4990613;28;20055;-78
2022/07/09 02:49:27;;;;;;;8.88;4.50;;;;;;;;;;4979318;28;20400;-79
2022/07/09 02:51:54;;;;;;;6.38;4.40;;;;;;;;;;4993575;28;20555;-78
2022/07/09 02:54:22;;;;;;;5.75;3.90;;;;;;;;;;4993873;28;20046;-79
2022/07/09 02:56:49;;;;;;;6.38;4.32;;;;;;;;;;4993248;28;20049;-79
2022/07/09 02:59:15;;;;;;;7.03;4.03;;;;;;;;;;4990818;28;20133;-78
2022/07/09 03:01:41;;;;;;;5.53;4.15;;;;;;;;;;4959793;28;20410;-78
2022/07/09 03:04:07;;;;;;;8.07;4.68;;;;;;;;;;4979237;28;20121;-79
2022/07/09 03:06:33;;;;;;;5.70;4.22;;;;;;;;;;4997175;28;20046;-79
2022/07/09 03:08:59;;;;;;;7.93;4.80;;;;;;;;;;4996178;28;20105;-78
2022/07/09 03:11:25;;;;;;;8.70;5.03;;;;;;;;;;4994595;28;20088;-79
2022/07/09 03:13:51;;;;;;;9.07;4.70;;;;;;;;;;4996190;28;20069;-79
2022/07/09 03:16:17;;;;;;;10.90;5.45;;;;;;;;;;4962531;28;20482;-79
2022/07/09 03:18:43;;;;;;;8.32;5.00;;;;;;;;;;4997391;28;20053;-79
2022/07/09 03:21:11;;;;;;;8.75;5.50;;;;;;;;;;4991302;28;20086;-79
2022/07/09 03:23:37;;;;;;;8.55;4.88;;;;;;;;;;4984848;28;20108;-79
2022/07/09 03:26:07;;;;;;;9.18;5.30;;;;;;;;;;4979213;28;20117;-78
2022/07/09 03:28:34;;;;;;;7.35;5.03;;;;;;;;;;4996054;28;20042;-78
2022/07/09 03:31:00;;;;;;;8.98;5.32;;;;;;;;;;4996512;28;20371;-79
2022/07/09 03:33:26;;;;;;;8.98;5.60;;;;;;;;;;4997680;28;20042;-79
2022/07/09 03:35:55;;;;;;;10.55;5.90;;;;;;;;;;4988421;28;20082;-79
2022/07/09 03:38:21;;;;;;;9.48;6.43;;;;;;;;;;4988774;28;20077;-79
2022/07/09 03:40:47;;;;;;;7.80;5.13;;;;;;;;;;4981932;28;20047;-79
2022/07/09 03:43:13;;;;;;;10.30;5.78;;;;;;;;;;4992896;28;20057;-79
2022/07/09 03:45:39;;;;;;;7.60;5.55;;;;;;;;;;4994776;28;20054;-79
2022/07/09 03:48:05;;;;;;;10.15;5.28;;;;;;;;;;4996028;28;20042;-79
2022/07/09 03:50:31;;;;;;;11.02;5.35;;;;;;;;;;4996171;28;20046;-79
2022/07/09 03:53:00;;;;;;;9.48;5.07;;;;;;;;;;4995817;28;20038;-80
2022/07/09 03:55:26;;;;;;;8.85;5.00;;;;;;;;;;4996579;28;20034;-79
2022/07/09 03:57:55;;;;;;;9.93;5.03;;;;;;;;;;4988546;28;20042;-78
2022/07/09 04:00:21;;;;;;;10.68;4.97;;;;;;;;;;4995620;28;20124;-79
2022/07/09 04:02:47;;;;;;;8.00;5.35;;;;;;;;;;4962071;28;20046;-79
2022/07/09 04:05:14;;;;;;;8.90;4.88;;;;;;;;;;4978875;28;20042;-79
2022/07/09 04:07:40;;;;;;;8.63;5.38;;;;;;;;;;4996327;28;20046;-79
2022/07/09 04:10:06;;;;;;;6.78;5.07;;;;;;;;;;4994137;28;20112;-78
2022/07/09 04:12:32;;;;;;;9.93;5.60;;;;;;;;;;4977650;28;20434;-79
2022/07/09 04:14:58;;;;;;;9.52;5.13;;;;;;;;;;4995127;28;20552;-79
2022/07/09 04:17:24;;;;;;;8.55;5.18;;;;;;;;;;4994608;28;20072;-79
2022/07/09 04:19:51;;;;;;;9.77;5.60;;;;;;;;;;4996281;28;20042;-78
2022/07/09 04:22:17;;;;;;;8.00;5.10;;;;;;;;;;4994755;28;20378;-79
2022/07/09 04:24:43;;;;;;;10.27;5.32;;;;;;;;;;4995821;28;20061;-79
2022/07/09 04:27:12;;;;;;;8.07;5.00;;;;;;;;;;4976889;28;20060;-79
2022/07/09 04:29:38;;;;;;;9.13;5.18;;;;;;;;;;4995379;28;20046;-80
2022/07/09 04:32:04;;;;;;;8.77;4.90;;;;;;;;;;4982469;28;20056;-79
2022/07/09 04:34:31;;;;;;;8.90;5.05;;;;;;;;;;4976783;28;20042;-79
2022/07/09 04:36:57;;;;;;;8.27;5.07;;;;;;;;;;4976687;28;20735;-79
2022/07/09 04:39:24;;;;;;;7.18;4.70;;;;;;;;;;4994049;28;20042;-80
2022/07/09 04:41:51;;;;;;;5.97;4.70;;;;;;;;;;4993633;28;20137;-79
2022/07/09 04:44:17;;;;;;;9.57;4.88;;;;;;;;;;4994718;28;20097;-80
2022/07/09 04:46:43;;;;;;;7.75;4.53;;;;;;;;;;4961938;28;20129;-79
2022/07/09 04:49:10;;;;;;;9.00;4.63;;;;;;;;;;4978474;28;20050;-78
2022/07/09 04:51:36;;;;;;;9.05;4.53;;;;;;;;;;4981903;28;20058;-79
2022/07/09 04:54:02;;;;;;;6.25;4.20;;;;;;;;;;4987383;28;20073;-78
2022/07/09 04:56:28;;;;;;;6.10;4.10;;;;;;;;;;4995683;28;20051;-78
2022/07/09 04:58:55;;;;;;;5.15;4.03;;;;;;;;;;4994443;28;20057;-79
2022/07/09 05:01:22;;;;;;;7.15;3.60;;;;;;;;;;4994068;28;20057;-78
2022/07/09 05:03:48;;;;;;;6.80;4.05;;;;;;;;;;4995543;28;20050;-79
2022/07/09 05:06:18;;;;;;;9.60;3.88;;;;;;;;;;4994766;28;20520;-79
2022/07/09 05:08:44;;;;;;;7.55;3.70;;;;;;;;;;4994621;28;20145;-79
2022/07/09 05:11:10;;;;;;;6.78;3.95;;;;;;;;;;4993085;28;20046;-77
2022/07/09 05:13:37;;;;;;;5.97;3.35;;;;;;;;;;4995463;28;20125;-79
2022/07/09 05:16:09;;;;;;;4.90;3.22;;;;;;;;;;4960441;28;20447;-78
2022/07/09 05:18:35;;;;;;;5.60;3.40;;;;;;;;;;4995055;28;20046;-79
2022/07/09 05:21:02;;;;;;;4.97;3.55;;;;;;;;;;4987258;28;20082;-79
2022/07/09 05:23:30;;;;;;;7.07;3.50;;;;;;;;;;4965552;28;20105;-79
2022/07/09 05:25:56;;;;;;;5.25;3.28;;;;;;;;;;4993879;28;20065;-79
2022/07/09 05:28:23;;;;;;;6.55;3.45;;;;;;;;;;4976628;28;20501;-79
2022/07/09 05:30:49;;;;;;;9.00;3.70;;;;;;;;;;4993221;28;20114;-79
2022/07/09 05:33:15;;;;;;;7.50;3.33;;;;;;;;;;4993976;28;20446;-78
2022/07/09 05:35:41;;;;;;;5.88;3.35;;;;;;;;;;4974688;28;20502;-79
2022/07/09 05:38:09;;;;;;;5.63;3.65;;;;;;;;;;4993756;28;20042;-78
2022/07/09 05:40:35;;;;;;;8.95;3.72;;;;;;;;;;4990898;28;20038;-79
2022/07/09 05:43:04;;;;;;;7.57;3.60;;;;;;;;;;4993802;28;20049;-78
2022/07/09 05:45:30;;;;;;;6.07;3.72;;;;;;;;;;4993291;28;20065;-78
2022/07/09 05:47:56;;;;;;;8.88;3.80;;;;;;;;;;4993970;28;20494;-78
2022/07/09 05:50:22;;;;;;;4.95;3.50;;;;;;;;;;4993946;28;20085;-78
2022/07/09 05:52:51;;;;;;;7.18;3.72;;;;;;;;;;4992692;28;20410;-80
2022/07/09 05:55:17;;;;;;;9.80;3.60;;;;;;;;;;4994772;28;20493;-79
2022/07/09 05:57:46;;;;;;;5.72;3.58;;;;;;;;;;4992000;28;20497;-79
2022/07/09 06:00:12;;;;;;;5.88;3.30;;;;;;;;;;4992555;28;20046;-79
2022/07/09 06:02:38;;;;;;;10.13;3.58;;;;;;;;;;4993995;28;20350;-79
2022/07/09 06:05:04;;;;;;;9.48;3.55;;;;;;;;;;4992180;28;20138;-79
2022/07/09 06:07:30;;;;;;;9.38;3.20;;;;;;;;;;4984627;28;20379;-79
2022/07/09 06:09:59;;;;;;;7.95;3.33;;;;;;;;;;4975934;28;20050;-81
2022/07/09 06:12:25;;;;;;;8.32;3.53;;;;;;;;;;4960116;28;20054;-79
2022/07/09 06:14:51;;;;;;;6.75;3.38;;;;;;;;;;4974877;28;20122;-79
2022/07/09 06:17:17;;;;;;;9.35;3.45;;;;;;;;;;4976540;28;20129;-81
2022/07/09 06:19:43;;;;;;;5.97;2.88;;;;;;;;;;4991061;28;20527;-80
2022/07/09 06:22:10;;;;;;;8.45;3.70;;;;;;;;;;4993168;28;20459;-83
2022/07/09 06:24:36;;;;;;;7.15;3.30;;;;;;;;;;4993065;28;20054;-80
2022/07/09 06:27:02;;;;;;;7.13;3.40;;;;;;;;;;4993280;28;20152;-80
2022/07/09 06:29:28;;;;;;;9.27;3.30;;;;;;;;;;4975061;28;20043;-80
2022/07/09 06:31:59;;;;;;;6.05;3.33;;;;;;;;;;4967927;28;20042;-78
2022/07/09 06:34:25;;;;;;;10.07;3.22;;;;;;;;;;4991124;28;20057;-80
2022/07/09 06:36:52;;;;;;;6.68;3.25;;;;;;;;;;4993077;28;20050;-78
2022/07/09 06:42:06;;;;;;;9.57;3.10;;;;;;;;;;4999344;28;20050;-80
2022/07/09 06:44:32;;;;;;;10.80;3.45;;;;;;;;;;4982276;28;20046;-80
2022/07/09 06:46:58;;;;;;;9.15;3.08;;;;;;;;;;4998355;28;20050;-82
2022/07/09 06:49:24;;;;;;;9.05;3.40;;;;;;;;;;4999022;28;20146;-80
2022/07/09 06:51:50;;;;;;;6.50;3.10;;;;;;;;;;4999726;28;20509;-80
2022/07/09 06:54:16;;;;;;;9.27;3.40;;;;;;;;;;5001600;28;20478;-80
2022/07/09 06:56:42;;;;;;;9.82;3.13;;;;;;;;;;4999837;28;20073;-79
2022/07/09 06:59:08;;;;;;;7.38;3.40;;;;;;;;;;4997579;28;20049;-80
2022/07/09 07:01:34;;;;;;;11.68;3.70;;;;;;;;;;4990747;28;20043;-79
2022/07/09 07:04:00;;;;;;;8.05;3.67;;;;;;;;;;4992285;28;20433;-80
2022/07/09 07:06:26;;;;;;;7.20;3.28;;;;;;;;;;5000218;28;20085;-80
2022/07/09 07:08:52;;;;;;;7.50;3.10;;;;;;;;;;4979316;28;20046;-80
2022/07/09 07:11:19;;;;;;;8.32;3.42;;;;;;;;;;4996678;28;20054;-80
2022/07/09 07:13:45;;;;;;;7.38;3.10;;;;;;;;;;4982635;28;20050;-79
2022/07/09 07:16:11;;;;;;;7.10;3.05;;;;;;;;;;4999244;28;20038;-79
2022/07/09 07:18:37;;;;;;;8.43;3.10;;;;;;;;;;4997956;28;20038;-80
2022/07/09 07:21:03;;;;;;;6.57;3.17;;;;;;;;;;4999195;28;20048;-80
2022/07/09 07:23:31;;;;;;;8.98;3.00;;;;;;;;;;4997660;28;20042;-80
2022/07/09 07:25:57;;;;;;;7.82;3.10;;;;;;;;;;4995976;28;20046;-79
2022/07/09 07:28:23;;;;;;;7.30;2.97;;;;;;;;;;4997090;28;20078;-79
2022/07/09 07:30:49;;;;;;;10.70;3.30;;;;;;;;;;4996648;28;20046;-80
2022/07/09 07:33:16;;;;;;;7.47;3.20;;;;;;;;;;4988204;28;20118;-80
2022/07/09 07:35:42;;;;;;;6.32;3.10;;;;;;;;;;4988440;28;20043;-79
2022/07/09 07:38:08;;;;;;;9.00;3.38;;;;;;;;;;4988691;28;20176;-80
2022/07/09 07:40:34;;;;;;;11.18;3.10;;;;;;;;;;4989642;28;20049;-80
2022/07/09 07:43:00;;;;;;;9.48;3.20;;;;;;;;;;4992574;28;20049;-80
2022/07/09 07:45:28;;;;;;;7.15;3.17;;;;;;;;;;4994526;28;20066;-80
2022/07/09 07:47:54;;;;;;;8.50;2.95;;;;;;;;;;4993957;28;20046;-80
2022/07/09 07:50:21;;;;;;;7.32;2.90;;;;;;;;;;4992606;28;20034;-80
2022/07/09 07:52:47;;;;;;;8.48;3.13;;;;;;;;;;4992596;28;20054;-81
2022/07/09 07:55:13;;;;;;;6.75;2.95;;;;;;;;;;4987588;28;20045;-80
2022/07/09 07:57:39;;;;;;;5.60;2.80;;;;;;;;;;4987942;28;20046;-80
2022/07/09 08:00:05;;;;;;;8.77;3.10;;;;;;;;;;4975826;28;20417;-80
2022/07/09 08:02:31;;;;;;;8.98;3.05;;;;;;;;;;4995210;28;20126;-81
2022/07/09 08:04:58;;;;;;;6.35;2.70;;;;;;;;;;4993559;28;20038;-81
2022/07/09 08:07:24;;;;;;;11.07;2.90;;;;;;;;;;4988453;28;20379;-81
2022/07/09 08:09:50;;;;;;;6.95;3.00;;;;;;;;;;4970466;28;20042;-81
2022/07/09 08:12:16;;;;;;;5.90;2.85;;;;;;;;;;4986267;28;21556;-81
2022/07/09 08:14:42;;;;;;;6.68;2.75;;;;;;;;;;4994232;28;20042;-83
2022/07/09 08:17:08;;;;;;;10.27;3.00;;;;;;;;;;4996487;28;20124;-82
2022/07/09 08:19:34;;;;;;;8.38;3.10;;;;;;;;;;4991798;28;20494;-78
2022/07/09 08:22:00;;;;;;;6.75;3.13;;;;;;;;;;4994289;28;20801;-80
2022/07/09 08:24:26;;;;;;;6.10;2.78;;;;;;;;;;4993457;28;20042;-80
2022/07/09 08:26:53;;;;;;;9.55;3.55;;;;;;;;;;4993898;28;20046;-79
2022/07/09 08:29:22;;;;;;;10.52;3.35;;;;;;;;;;4992990;28;20046;-80
2022/07/09 08:31:49;;;;;;;8.27;3.10;;;;;;;;;;4970775;28;20049;-79
2022/07/09 08:34:15;;;;;;;5.97;3.45;;;;;;;;;;4994544;28;20563;-79
2022/07/09 08:36:41;;;;;;;9.10;3.03;;;;;;;;;;4993488;28;20046;-80
2022/07/09 08:39:10;;;;;;;8.48;2.97;;;;;;;;;;4994677;28;20130;-81
2022/07/09 08:41:36;;;;;;;5.93;2.80;;;;;;;;;;4993004;28;20167;-80
2022/07/09 08:44:05;;;;;;;8.73;3.20;;;;;;;;;;4993458;28;20043;-80
2022/07/09 08:46:35;;;;;;;8.43;2.75;;;;;;;;;;4971324;28;20065;-81
2022/07/09 08:49:01;;;;;;;8.23;3.28;;;;;;;;;;4994264;28;20065;-80
2022/07/09 08:51:27;;;;;;;9.23;2.85;;;;;;;;;;4994501;28;20046;-80
2022/07/09 08:53:55;;;;;;;6.53;2.80;;;;;;;;;;4993416;28;20046;-80
2022/07/09 08:56:21;;;;;;;6.22;2.95;;;;;;;;;;4993429;28;20534;-80
2022/07/09 08:58:47;;;;;;;7.57;2.55;;;;;;;;;;4987918;28;20051;-80
2022/07/09 09:01:14;;;;;;;6.78;2.83;;;;;;;;;;4992852;28;20097;-80
2022/07/09 09:03:41;;;;;;;10.10;3.53;;;;;;;;;;4976464;28;20568;-79
2022/07/09 09:06:08;;;;;;;7.82;3.05;;;;;;;;;;4994260;28;20469;-80
2022/07/09 09:08:35;;;;;;;8.68;3.33;;;;;;;;;;4993530;28;20417;-78
2022/07/09 09:11:02;;;;;;;8.90;3.05;;;;;;;;;;4991207;28;20303;-79
2022/07/09 09:13:28;;;;;;;10.48;3.03;;;;;;;;;;4975258;28;20042;-80
2022/07/09 09:16:07;;;;;;;7.07;2.92;;;;;;;;;;4992324;28;20382;-79
2022/07/09 09:18:52;;;;;;;6.28;2.90;;;;;;;;;;4992091;28;20049;-80
2022/07/09 09:21:25;;;;;;;7.05;3.10;;;;;;;;;;4978669;28;20050;-80
2022/07/09 09:23:52;;;;;;;7.25;3.38;;;;;;;;;;4989575;28;20034;-80
2022/07/09 09:26:19;;;;;;;9.00;3.47;;;;;;;;;;4991143;28;20508;-80
2022/07/09 09:28:46;;;;;;;10.60;3.30;;;;;;;;;;4992293;28;20054;-79
2022/07/09 09:31:32;;;;;;;7.10;3.25;;;;;;;;;;4982742;28;20121;-78
2022/07/09 09:34:10;;;;;;;6.07;3.10;;;;;;;;;;4973383;28;20138;-80
2022/07/09 09:36:43;;;;;;;14.57;3.85;;;;;;;;;;4990871;28;20042;-80
2022/07/09 09:39:12;;;;;;;7.53;3.60;;;;;;;;;;4993801;28;20050;-78
2022/07/09 09:41:38;;;;;;;8.43;3.60;;;;;;;;;;4976651;28;20069;-79
2022/07/09 09:44:08;;;;;;;10.73;4.10;;;;;;;;;;4988505;28;20086;-78
2022/07/09 09:46:35;;;;;;;8.02;3.63;;;;;;;;;;4991931;28;20058;-80
2022/07/09 09:49:02;;;;;;;7.95;3.60;;;;;;;;;;4993307;28;20053;-77
2022/07/09 09:51:30;;;;;;;13.63;3.72;;;;;;;;;;4995339;28;20167;-79
2022/07/09 09:53:57;;;;;;;7.63;3.67;;;;;;;;;;4993566;28;20406;-76
2022/07/09 09:56:24;;;;;;;12.10;3.72;;;;;;;;;;4993506;28;20038;-81
2022/07/09 09:58:51;;;;;;;7.35;3.55;;;;;;;;;;4989512;28;20038;-80
2022/07/09 10:01:17;;;;;;;9.35;3.25;;;;;;;;;;4992241;28;20402;-78
2022/07/09 10:03:44;;;;;;;8.38;3.35;;;;;;;;;;4990232;28;20066;-79
2022/07/09 10:06:10;;;;;;;9.40;3.05;;;;;;;;;;4992529;28;20034;-77
2022/07/09 10:08:36;;;;;;;9.23;3.25;;;;;;;;;;4977754;28;20093;-78
2022/07/09 10:11:02;;;;;;;8.68;2.92;;;;;;;;;;4989322;28;20074;-79
2022/07/09 10:13:28;;;;;;;7.13;3.13;;;;;;;;;;4990709;28;20066;-79
2022/07/09 10:15:55;;;;;;;5.15;2.30;;;;;;;;;;4993510;28;20081;-78
2022/07/09 10:18:21;;;;;;;6.22;2.53;;;;;;;;;;4992945;28;20073;-77
2022/07/09 10:20:47;;;;;;;9.70;2.50;;;;;;;;;;4975375;28;20046;-77
2022/07/09 10:23:23;;;;;;;7.93;2.70;;;;;;;;;;4992834;28;20497;-77
2022/07/09 10:25:55;;;;;;;6.60;2.30;;;;;;;;;;4993082;28;20046;-77
2022/07/09 10:28:24;;;;;;;7.55;2.38;;;;;;;;;;4989752;28;20046;-76
2022/07/09 10:30:53;;;;;;;6.57;2.50;;;;;;;;;;4992050;28;20173;-79
2022/07/09 10:33:23;;;;;;;8.25;2.72;;;;;;;;;;4992885;28;20398;-79
2022/07/09 10:35:54;;;;;;;8.57;2.35;;;;;;;;;;4992708;28;20043;-78
2022/07/09 10:38:24;;;;;;;7.80;2.58;;;;;;;;;;4992860;28;20405;-79
2022/07/09 10:40:57;;;;;;;9.25;2.40;;;;;;;;;;4992641;28;20121;-79
2022/07/09 10:43:47;;;;;;;5.40;2.10;;;;;;;;;;4991191;28;20046;-80
2022/07/09 10:46:14;;;;;;;7.38;2.10;;;;;;;;;;4985727;28;20524;-78
2022/07/09 10:48:41;;;;;;;3.65;1.85;;;;;;;;;;4992723;28;20109;-79
2022/07/09 10:51:07;;;;;;;8.13;2.30;;;;;;;;;;4958624;28;20043;-79
2022/07/09 10:53:33;;;;;;;6.60;2.42;;;;;;;;;;4990406;28;20078;-83
2022/07/09 10:56:00;;;;;;;5.55;2.17;;;;;;;;;;4959243;28;20038;-78
2022/07/09 10:58:26;;;;;;;8.48;2.33;;;;;;;;;;4974240;28;20061;-78
2022/07/09 11:00:56;;;;;;;6.00;2.13;;;;;;;;;;4973920;28;20446;-78
2022/07/09 11:03:26;;;;;;;4.97;2.10;;;;;;;;;;4975235;28;20125;-78
2022/07/09 11:05:55;;;;;;;5.03;2.03;;;;;;;;;;4975692;28;20061;-78
2022/07/09 11:08:21;;;;;;;5.22;2.28;;;;;;;;;;4992241;28;20081;-78
2022/07/09 11:10:48;;;;;;;4.57;2.00;;;;;;;;;;4992673;28;20048;-79
2022/07/09 11:13:17;;;;;;;7.53;2.17;;;;;;;;;;4990306;28;20046;-79
2022/07/09 11:15:43;;;;;;;4.75;2.00;;;;;;;;;;4992479;28;20077;-79
2022/07/09 11:18:11;;;;;;;4.53;1.90;;;;;;;;;;4992527;28;20097;-79
2022/07/09 11:20:43;;;;;;;5.50;1.90;;;;;;;;;;4990839;28;20049;-78
2022/07/09 11:23:09;;;;;;;5.15;2.10;;;;;;;;;;4990728;28;20093;-78
2022/07/09 11:25:39;;;;;;;7.00;2.10;;;;;;;;;;4993297;28;20086;-78
2022/07/09 11:28:26;;;;;;;6.60;2.13;;;;;;;;;;4978425;28;20050;-78
2022/07/09 11:30:58;;;;;;;4.00;1.70;;;;;;;;;;4996758;28;20053;-79
2022/07/09 11:33:25;;;;;;;7.10;2.15;;;;;;;;;;4996776;28;20073;-79
2022/07/09 11:35:56;;;;;;;4.53;1.80;;;;;;;;;;4978655;28;20057;-78
2022/07/09 11:38:23;;;;;;;3.83;1.98;;;;;;;;;;4978028;28;20058;-78
2022/07/09 11:40:59;;;;;;;4.45;1.85;;;;;;;;;;4995898;28;20038;-79
2022/07/09 11:43:34;;;;;;;2.50;1.75;;;;;;;;;;4985201;28;20073;-78
2022/07/09 11:46:03;;;;;;;2.90;1.52;;;;;;;;;;4975675;28;20053;-78
2022/07/09 11:48:30;;;;;;;3.13;1.90;;;;;;;;;;4995459;28;20544;-79
2022/07/09 11:50:59;;;;;;;4.78;1.90;;;;;;;;;;4994378;28;20069;-78
2022/07/09 11:53:25;;;;;;;3.63;1.88;;;;;;;;;;4988672;28;20439;-79
2022/07/09 11:56:00;;;;;;;5.32;1.92;;;;;;;;;;4982214;28;20130;-79
2022/07/09 11:58:27;;;;;;;5.63;2.00;;;;;;;;;;4978260;28;20046;-79
2022/07/09 12:01:00;;;;;;;6.18;1.98;;;;;;;;;;4995467;28;20046;-79
2022/07/09 12:03:27;;;;;;;4.95;2.20;;;;;;;;;;4960793;28;20097;-79
2022/07/09 12:05:56;;;;;;;4.32;1.95;;;;;;;;;;4961573;28;20046;-79
2022/07/09 12:08:29;;;;;;;5.88;1.90;;;;;;;;;;4994871;28;20469;-79
2022/07/09 12:10:56;;;;;;;6.60;1.75;;;;;;;;;;4961758;28;20486;-79
2022/07/09 12:13:22;;;;;;;4.35;2.00;;;;;;;;;;4977658;28;20047;-79
2022/07/09 12:15:48;;;;;;;7.57;2.00;;;;;;;;;;4994757;28;20043;-79
2022/07/09 12:18:29;;;;;;;5.90;2.10;;;;;;;;;;4995371;28;20050;-78
2022/07/09 12:20:55;;;;;;;6.28;1.73;;;;;;;;;;4978094;28;20414;-79
2022/07/09 12:23:22;;;;;;;7.32;1.80;;;;;;;;;;4994436;28;20042;-79
2022/07/09 12:25:48;;;;;;;5.82;1.85;;;;;;;;;;4977065;28;20148;-79
2022/07/09 12:28:16;;;;;;;8.18;2.10;;;;;;;;;;4994900;28;20046;-79
2022/07/09 12:30:44;;;;;;;6.82;2.13;;;;;;;;;;4995040;28;20054;-79
2022/07/09 12:33:10;;;;;;;4.45;2.05;;;;;;;;;;4970557;28;20078;-78
2022/07/09 12:35:39;;;;;;;5.13;1.95;;;;;;;;;;4994116;28;20042;-78
2022/07/09 12:38:05;;;;;;;4.28;2.15;;;;;;;;;;4977384;28;20208;-78
2022/07/09 12:40:31;;;;;;;4.97;1.92;;;;;;;;;;4976462;28;20125;-78
2022/07/09 12:42:57;;;;;;;5.30;2.10;;;;;;;;;;4978120;28;20046;-81
2022/07/09 12:45:23;;;;;;;4.55;2.03;;;;;;;;;;4993484;28;20093;-81
2022/07/09 12:47:49;;;;;;;5.10;2.10;;;;;;;;;;4994358;28;20050;-78
2022/07/09 12:50:15;;;;;;;6.50;2.05;;;;;;;;;;4991765;28;20387;-79
2022/07/09 12:52:42;;;;;;;5.38;2.55;;;;;;;;;;4993600;28;20054;-80
2022/07/09 12:55:09;;;;;;;3.45;1.92;;;;;;;;;;4991769;28;20408;-81
2022/07/09 12:57:36;;;;;;;4.97;2.22;;;;;;;;;;4994443;28;20060;-80
2022/07/09 13:00:02;;;;;;;7.82;2.17;;;;;;;;;;4993138;28;20043;-81
2022/07/09 13:02:28;;;;;;;6.60;2.33;;;;;;;;;;4976795;28;20597;-80
2022/07/09 13:04:54;;;;;;;7.32;2.47;;;;;;;;;;4992953;28;20497;-81
2022/07/09 13:07:20;;;;;;;5.45;2.25;;;;;;;;;;4992641;28;20413;-80
2022/07/09 13:09:46;;;;;;;5.53;2.00;;;;;;;;;;4993646;28;20125;-79
2022/07/09 13:12:12;;;;;;;6.00;2.22;;;;;;;;;;4994615;28;20548;-81
2022/07/09 13:14:38;;;;;;;4.78;2.20;;;;;;;;;;4994340;28;20114;-83
2022/07/09 13:17:04;;;;;;;4.45;2.20;;;;;;;;;;4993658;28;20457;-79
2022/07/09 13:19:30;;;;;;;6.10;2.40;;;;;;;;;;4991784;28;20081;-79
2022/07/09 13:21:56;;;;;;;5.28;2.33;;;;;;;;;;4993094;28;20088;-80
2022/07/09 13:24:22;;;;;;;5.63;2.13;;;;;;;;;;4993338;28;20046;-83
2022/07/09 13:26:48;;;;;;;6.63;2.75;;;;;;;;;;4993783;28;20375;-78
2022/07/09 13:29:14;;;;;;;5.03;2.10;;;;;;;;;;4993703;28;20059;-80
2022/07/09 13:31:40;;;;;;;6.20;2.25;;;;;;;;;;4993741;28;20042;-79
2022/07/09 13:34:06;;;;;;;6.13;2.53;;;;;;;;;;4992204;28;20042;-79
2022/07/09 13:36:33;;;;;;;6.05;2.40;;;;;;;;;;4993808;28;20060;-79
2022/07/09 13:38:59;;;;;;;7.25;2.55;;;;;;;;;;4975057;28;20039;-80
2022/07/09 13:41:25;;;;;;;5.65;2.60;;;;;;;;;;4993560;28;20053;-79
2022/07/09 13:43:51;;;;;;;7.90;2.63;;;;;;;;;;4990767;28;20486;-80
2022/07/09 13:46:17;;;;;;;8.27;2.95;;;;;;;;;;4992899;28;20113;-80
2022/07/09 13:48:43;;;;;;;5.72;2.42;;;;;;;;;;4974542;28;20058;-80
2022/07/09 13:51:09;;;;;;;6.38;2.22;;;;;;;;;;4993608;28;20463;-79
2022/07/09 13:53:35;;;;;;;6.20;2.30;;;;;;;;;;4993785;28;20046;-79
2022/07/09 13:56:01;;;;;;;5.13;1.98;;;;;;;;;;4991666;28;20133;-80
2022/07/09 13:58:28;;;;;;;5.45;2.30;;;;;;;;;;4982464;28;20042;-79
2022/07/09 14:00:54;;;;;;;6.97;2.30;;;;;;;;;;4992390;28;20159;-79
2022/07/09 14:03:20;;;;;;;9.82;2.30;;;;;;;;;;4993088;28;20481;-79
2022/07/09 14:05:46;;;;;;;4.38;2.10;;;;;;;;;;4993105;28;20096;-79
2022/07/09 14:08:13;;;;;;;5.25;1.80;;;;;;;;;;4992255;28;20046;-80
2022/07/09 14:10:39;;;;;;;5.03;1.85;;;;;;;;;;4993332;28;20046;-79
2022/07/09 14:13:05;;;;;;;7.28;2.30;;;;;;;;;;4992298;28;20089;-79
2022/07/09 14:15:33;;;;;;;4.70;1.98;;;;;;;;;;4992585;28;20038;-79
2022/07/09 14:17:59;;;;;;;4.70;1.90;;;;;;;;;;4992139;28;20122;-79
2022/07/09 14:20:25;;;;;;;5.45;1.80;;;;;;;;;;4993390;28;20069;-79
2022/07/09 14:22:51;;;;;;;6.65;1.88;;;;;;;;;;4993121;28;20050;-79
2022/07/09 14:25:18;;;;;;;5.57;1.73;;;;;;;;;;4993190;28;20046;-78
2022/07/09 14:27:44;;;;;;;5.45;1.95;;;;;;;;;;4992805;28;20038;-78
2022/07/09 14:30:10;;;;;;;5.88;2.13;;;;;;;;;;4976945;28;20042;-79
2022/07/09 14:32:36;;;;;;;4.57;2.00;;;;;;;;;;4982954;28;20528;-80
2022/07/09 14:35:02;;;;;;;6.00;2.20;;;;;;;;;;4975355;28;20402;-79
2022/07/09 14:37:29;;;;;;;5.05;1.88;;;;;;;;;;4993069;28;20046;-80
2022/07/09 14:39:55;;;;;;;5.20;1.88;;;;;;;;;;4975369;28;20065;-79
2022/07/09 14:42:22;;;;;;;5.40;2.10;;;;;;;;;;4991463;28;20069;-80
2022/07/09 14:44:50;;;;;;;6.72;2.20;;;;;;;;;;4992237;28;20082;-79